Cleveland, Ohio
Traffic Map
Current Weather Conditions
Cleveland, Ohio
Overcast
Overcast

Feels Like: -3°
Wind Chill: -3° Ceiling: 5500
Heat Index: Visibility: 10mi
Dew Point: -1° Wind: 14mph
Humidity: 85% Direction: 350° (N)
Pressure: 29.87in Gusts: 0mph
Raw Report DataKBKL 311953Z 35012KT 10SM FEW006 OVC055 02/M01 A2987 RMK AO2 SLP119 T00171006
Traffic Incident Summary
Active as of:
Severity:
Category:
InformationThere was an issue retrieving the traffic information for this location. Please try a different location or try again shortly.
Advertisements
Track Severe Weather on mobile